Time;durP1;ratioP1;P1;durP2;ratioP2;P2;SDS_P1;SDS_P2;PMS_P1;PMS_P2;Temp;Humidity;BMP_temperature;BMP_pressure;BME280_temperature;BME280_humidity;BME280_pressure;Samples;Min_cycle;Max_cycle;Signal;HPM_P1;HPM_P2
2021/04/06 00:00:38;;;;;;;4.75;2.13;;;0.60;78.20;;;-0.82;72.81;95640.59;4990149;28;20030;-73
2021/04/06 00:03:04;;;;;;;3.70;1.90;;;0.70;78.20;;;-0.83;72.25;95636.38;4976177;28;20030;-74
2021/04/06 00:05:30;;;;;;;29.42;21.52;;;0.60;77.80;;;-0.85;72.07;95625.38;4974427;28;20434;-75
2021/04/06 00:07:58;;;;;;;18.85;5.93;;;0.60;77.80;;;-0.85;72.03;95625.38;4984754;28;20113;-74
2021/04/06 00:10:33;;;;;;;5.55;2.15;;;0.60;77.30;;;-0.87;73.56;95631.63;4988711;28;20189;-74
2021/04/06 00:12:59;;;;;;;6.55;2.22;;;0.60;77.50;;;-0.85;71.34;95627.13;4985606;28;20037;-74
2021/04/06 00:15:26;;;;;;;4.75;2.05;;;0.60;77.10;;;-0.90;71.72;95632.69;5004131;28;20042;-73
2021/04/06 00:17:54;;;;;;;4.68;2.10;;;0.60;77.10;;;-0.92;71.86;95624.25;4989785;28;20042;-74
2021/04/06 00:20:20;;;;;;;7.22;2.13;;;0.60;77.20;;;-0.90;71.68;95632.69;4988771;28;20038;-73
2021/04/06 00:22:46;;;;;;;5.45;1.90;;;0.70;76.90;;;-0.92;71.79;95624.25;4975224;28;20080;-74
2021/04/06 00:25:15;;;;;;;3.67;1.88;;;0.60;76.80;;;-0.91;71.71;95631.03;4992011;28;20030;-73
2021/04/06 00:27:43;;;;;;;4.70;1.95;;;0.60;76.60;;;-0.90;71.79;95631.88;4976572;28;20030;-73
2021/04/06 00:30:11;;;;;;;3.17;1.70;;;0.60;76.10;;;-0.89;71.25;95631.75;4991533;28;20538;-74
2021/04/06 00:32:37;;;;;;;5.80;2.15;;;0.70;76.00;;;-0.91;71.15;95625.88;4986075;28;23054;-73
2021/04/06 00:35:05;;;;;;;5.93;2.15;;;0.70;76.20;;;-0.92;71.34;95634.56;4974288;28;20029;-73
2021/04/06 00:37:31;;;;;;;6.10;2.25;;;0.60;76.40;;;-0.94;71.55;95620.97;5006360;28;20057;-73
2021/04/06 00:40:08;;;;;;;4.60;1.90;;;0.60;75.70;;;-0.97;71.89;95621.25;5007098;28;20076;-73
2021/04/06 00:42:34;;;;;;;6.43;1.80;;;0.50;75.70;;;-1.00;71.20;95621.50;5006669;28;20129;-73
2021/04/06 00:45:14;;;;;;;6.85;1.85;;;0.50;75.40;;;-1.01;72.78;95630.19;5008663;28;20497;-73
2021/04/06 00:47:40;;;;;;;4.95;1.92;;;0.50;76.00;;;-1.05;71.06;95619.31;4975124;28;20030;-74
2021/04/06 00:50:09;;;;;;;6.20;2.00;;;0.50;75.90;;;-1.07;71.17;95628.13;4986143;28;20073;-74
2021/04/06 00:52:44;;;;;;;5.45;1.95;;;0.40;75.50;;;-1.09;72.16;95617.13;4986587;28;20048;-73
2021/04/06 00:55:17;;;;;;;5.32;1.83;;;0.50;75.60;;;-1.10;71.96;95615.50;4967294;28;20038;-73
2021/04/06 00:57:43;;;;;;;5.53;1.98;;;0.40;75.30;;;-1.11;71.04;95609.53;4996814;28;20042;-73
2021/04/06 01:00:29;;;;;;;6.30;1.95;;;0.50;75.10;;;-1.12;71.74;95612.22;5007398;28;20980;-74
2021/04/06 01:03:14;;;;;;;5.30;1.75;;;0.40;74.70;;;-1.15;72.25;95605.53;5005808;28;20034;-74
2021/04/06 01:06:15;;;;;;;3.63;1.90;;;0.40;75.20;;;-1.18;71.84;95604.97;4991626;28;20613;-73
2021/04/06 01:08:41;;;;;;;6.70;1.98;;;0.30;75.20;;;-1.24;70.94;95609.72;4963769;28;20046;-74
2021/04/06 01:11:07;;;;;;;7.30;2.17;;;0.30;75.50;;;-1.25;70.93;95602.94;4986692;28;20510;-74
2021/04/06 01:13:36;;;;;;;5.35;1.80;;;0.30;75.30;;;-1.26;71.11;95605.63;4987079;28;20038;-74
2021/04/06 01:16:03;;;;;;;7.63;2.22;;;0.20;75.00;;;-1.34;70.92;95605.47;5014377;28;20045;-74
2021/04/06 01:18:29;;;;;;;6.07;1.98;;;0.10;75.70;;;-1.37;70.92;95598.78;4975288;28;20037;-73
2021/04/06 01:20:55;;;;;;;5.57;1.92;;;0.10;75.40;;;-1.37;70.89;95598.78;4971816;28;20459;-74
2021/04/06 01:23:21;;;;;;;5.20;1.92;;;0.10;75.30;;;-1.41;70.74;95597.41;5006023;28;20034;-74
2021/04/06 01:25:53;;;;;;;5.65;1.92;;;0.10;75.30;;;-1.42;70.63;95592.38;4988947;28;20069;-73
2021/04/06 01:28:19;;;;;;;3.55;1.45;;;0.00;75.10;;;-1.48;70.95;95585.97;5007435;28;20030;-74
2021/04/06 01:30:47;;;;;;;4.88;1.75;;;0.00;75.70;;;-1.53;70.55;95590.72;5006786;28;20042;-73
2021/04/06 01:33:17;;;;;;;8.82;2.10;;;0.00;75.60;;;-1.57;70.88;95579.03;5007067;28;20049;-74
2021/04/06 01:35:53;;;;;;;6.13;1.80;;;0.00;75.50;;;-1.59;71.65;95575.72;4984282;28;20501;-73
2021/04/06 01:38:19;;;;;;;5.95;2.13;;;0.00;75.30;;;-1.62;70.45;95568.25;4974811;28;20161;-73
2021/04/06 01:40:46;;;;;;;7.70;2.20;;;0.00;75.30;;;-1.65;70.50;95563.34;4978018;28;20409;-74
2021/04/06 01:43:13;;;;;;;4.32;1.88;;;0.00;75.40;;;-1.67;71.16;95560.09;4990563;28;20092;-74
2021/04/06 01:45:46;;;;;;;4.38;2.00;;;0.00;75.60;;;-1.72;70.85;95552.72;4994341;28;20053;-73
2021/04/06 01:48:13;;;;;;;7.68;2.30;;;-3276.70;75.60;;;-1.73;71.13;95553.69;4991193;28;20034;-74
2021/04/06 01:50:43;;;;;;;5.68;2.10;;;0.00;76.00;;;-1.73;70.97;95555.44;5010215;28;20046;-74
2021/04/06 01:53:10;;;;;;;6.72;1.90;;;-3276.60;75.10;;;-1.77;70.81;95556.66;4993731;28;20042;-73
2021/04/06 01:55:38;;;;;;;6.03;1.80;;;-3276.60;74.90;;;-1.79;70.72;95551.63;4995002;28;20451;-73
2021/04/06 01:58:05;;;;;;;4.75;1.92;;;-3276.60;74.00;;;-1.81;69.97;95547.50;5011063;28;20041;-74
2021/04/06 02:00:57;;;;;;;6.07;1.95;;;-3276.60;73.20;;;-1.85;69.70;95549.53;5008546;28;20044;-74
2021/04/06 02:03:27;;;;;;;7.03;2.00;;;-3276.60;73.00;;;-1.89;69.97;95546.38;4983323;28;20153;-74
2021/04/06 02:05:53;;;;;;;5.30;1.85;;;-3276.50;73.20;;;-1.88;69.71;95542.88;5011013;28;20030;-74
2021/04/06 02:08:20;;;;;;;4.75;2.10;;;-3276.60;73.50;;;-1.86;70.00;95545.31;4974477;28;20030;-72
2021/04/06 02:10:46;;;;;;;9.95;2.03;;;-3276.70;73.20;;;-1.88;70.03;95542.88;5010384;28;20037;-74
2021/04/06 02:13:14;;;;;;;6.18;2.58;;;-3276.60;74.00;;;-1.89;69.99;95543.81;4976033;28;20318;-74
2021/04/06 02:15:58;;;;;;;5.55;2.25;;;-3276.60;73.90;;;-1.88;70.45;95537.72;4991228;28;20390;-73
2021/04/06 02:18:25;;;;;;;5.00;2.33;;;-3276.60;74.10;;;-1.91;70.26;95535.38;5005981;28;20033;-73
2021/04/06 02:20:55;;;;;;;9.23;2.90;;;-3276.50;74.70;;;-1.95;70.47;95538.34;4994298;28;20069;-73
2021/04/06 02:23:21;;;;;;;7.80;2.42;;;-3276.50;75.10;;;-1.95;70.22;95543.50;4976069;28;20185;-73
2021/04/06 02:25:54;;;;;;;6.88;2.47;;;-3276.50;74.90;;;-1.97;70.77;95547.97;4971019;28;20081;-74
2021/04/06 02:28:23;;;;;;;6.03;2.80;;;-3276.50;74.70;;;-1.96;70.50;95552.19;5010523;28;20121;-72
2021/04/06 02:30:56;;;;;;;6.13;2.40;;;-3276.50;74.10;;;-1.96;70.29;95563.31;5010371;28;20096;-73
2021/04/06 02:33:27;;;;;;;10.40;2.35;;;-3276.60;74.00;;;-1.96;70.16;95558.16;4992152;28;20045;-73
2021/04/06 02:36:01;;;;;;;4.95;2.40;;;-3276.60;73.50;;;-1.97;70.64;95559.09;5006992;28;20034;-73
2021/04/06 02:38:34;;;;;;;7.45;2.60;;;-3276.50;73.50;;;-2.02;70.19;95556.09;4980097;28;20481;-73
2021/04/06 02:41:14;;;;;;;8.93;2.50;;;-3276.50;73.70;;;-2.04;70.43;95559.69;4993712;28;20117;-73
2021/04/06 02:43:51;;;;;;;3.75;2.33;;;-3276.50;73.10;;;-2.08;70.89;95555.75;5003190;28;20520;-73
2021/04/06 02:46:26;;;;;;;8.13;2.60;;;-3276.50;73.60;;;-2.10;70.43;95553.28;4992352;28;20030;-73
2021/04/06 02:48:53;;;;;;;6.22;2.47;;;-3276.40;73.50;;;-2.09;70.00;95557.50;4994123;28;20045;-73
2021/04/06 02:51:19;;;;;;;9.05;2.13;;;-3276.50;73.40;;;-2.07;69.77;95553.03;4979806;28;20105;-73
2021/04/06 02:53:48;;;;;;;7.05;2.42;;;-3276.60;73.60;;;-2.04;70.13;95552.78;5004036;28;20534;-74
2021/04/06 02:56:34;;;;;;;6.68;2.60;;;-3276.70;73.40;;;-2.03;70.89;95553.63;5009467;28;20100;-73
2021/04/06 02:59:19;;;;;;;7.70;2.50;;;-3276.70;72.80;;;-2.14;70.83;95557.06;4991434;28;20320;-73
2021/04/06 03:01:46;;;;;;;6.22;2.38;;;-3276.40;73.20;;;-2.24;69.75;95551.03;4990265;28;20592;-74
2021/04/06 03:04:22;;;;;;;4.90;2.55;;;-3276.20;73.50;;;-2.33;70.51;95552.59;4993608;28;20037;-74
2021/04/06 03:06:50;;;;;;;6.05;3.00;;;-3276.10;74.10;;;-2.44;70.43;95550.06;4977775;28;20030;-74
2021/04/06 03:09:18;;;;;;;7.97;3.03;;;-3276.00;74.90;;;-2.45;70.72;95552.75;4992162;28;20057;-74
2021/04/06 03:11:48;;;;;;;7.70;2.75;;;-3276.00;74.90;;;-2.43;71.09;95556.03;4992939;28;20058;-73
2021/04/06 03:14:14;;;;;;;6.50;2.92;;;-3276.20;74.40;;;-2.39;70.21;95557.41;4994691;28;20030;-74
2021/04/06 03:16:40;;;;;;;4.82;2.85;;;-3276.30;73.90;;;-2.40;70.38;95551.44;4993447;28;20045;-74
2021/04/06 03:19:06;;;;;;;8.32;3.25;;;-3276.20;73.90;;;-2.45;70.50;95539.91;4995003;28;20030;-75
2021/04/06 03:21:33;;;;;;;8.40;3.10;;;-3276.10;74.70;;;-2.49;70.74;95544.44;5009103;28;20044;-74
2021/04/06 03:24:00;;;;;;;7.47;3.50;;;-3276.00;74.80;;;-2.56;70.88;95535.59;4991917;28;20068;-74
2021/04/06 03:26:27;;;;;;;6.40;3.22;;;-3275.90;75.20;;;-2.62;70.88;95542.06;4990772;28;20035;-73
2021/04/06 03:28:55;;;;;;;7.03;2.90;;;-3275.90;75.80;;;-2.61;70.90;95543.69;5015540;28;20046;-74
2021/04/06 03:31:21;;;;;;;8.32;3.60;;;-3276.00;75.60;;;-2.62;71.14;95541.22;4990987;28;20092;-73
2021/04/06 03:33:50;;;;;;;7.95;3.72;;;-3275.90;75.70;;;-2.70;71.36;95536.72;5008228;28;20038;-73
2021/04/06 03:36:32;;;;;;;7.20;3.05;;;-3275.80;76.30;;;-2.74;73.25;95537.88;4992277;28;20084;-74
2021/04/06 03:39:01;;;;;;;7.43;2.83;;;-3275.80;76.70;;;-2.78;71.81;95542.44;5022166;28;20059;-73
2021/04/06 03:41:28;;;;;;;7.43;3.30;;;-3275.70;77.00;;;-2.83;71.54;95539.41;5004118;28;20069;-74
2021/04/06 03:44:08;;;;;;;8.48;3.60;;;-3275.60;77.30;;;-2.83;73.18;95548.91;5006694;28;20034;-74
2021/04/06 03:46:35;;;;;;;19.02;9.20;;;-3275.70;77.10;;;-2.77;72.56;95543.25;4993135;28;20034;-74
2021/04/06 03:49:24;;;;;;;12.63;5.88;;;-3276.00;78.30;;;-2.72;74.82;95551.44;4992010;28;20029;-74
2021/04/06 03:51:58;;;;;;;8.60;3.85;;;-3276.00;77.90;;;-2.66;73.08;95545.81;4995816;28;20681;-74
2021/04/06 03:54:39;;;;;;;7.68;3.45;;;-3276.00;76.60;;;-2.62;73.59;95536.91;5005361;28;20096;-73
2021/04/06 03:57:52;;;;;;;11.47;3.67;;;-3276.00;76.30;;;-2.64;73.66;95528.47;5006707;28;20694;-74
2021/04/06 04:00:18;;;;;;;9.70;3.55;;;-3276.00;76.20;;;-2.70;71.97;95533.31;4980503;28;20293;-74
2021/04/06 04:02:44;;;;;;;6.53;3.20;;;-3275.80;76.40;;;-2.68;71.89;95532.25;5008066;28;20394;-73
2021/04/06 04:05:13;;;;;;;7.78;3.10;;;-3276.00;76.10;;;-2.70;72.26;95536.72;4976871;28;20164;-74
2021/04/06 04:07:39;;;;;;;6.03;2.83;;;-3275.90;76.70;;;-2.71;71.91;95537.66;5008180;28;20040;-74
2021/04/06 04:10:06;;;;;;;7.70;3.33;;;-3275.90;76.40;;;-2.72;72.12;95541.13;5008420;28;20034;-73
2021/04/06 04:12:32;;;;;;;8.93;3.40;;;-3275.90;76.60;;;-2.73;72.40;95529.19;4987654;28;20092;-73
2021/04/06 04:14:58;;;;;;;7.95;3.80;;;-3275.80;76.90;;;-2.76;72.48;95532.03;5007379;28;20085;-74
2021/04/06 04:17:26;;;;;;;5.47;3.38;;;-3275.80;77.00;;;-2.74;72.65;95531.91;5021982;28;20034;-74
2021/04/06 04:19:54;;;;;;;8.57;3.92;;;-3275.80;77.10;;;-2.77;72.57;95533.78;5008645;28;20026;-74
2021/04/06 04:22:19;;;;;;;6.40;3.70;;;-3275.80;77.20;;;-2.78;72.51;95536.47;5007315;28;20033;-72
2021/04/06 04:24:45;;;;;;;8.18;3.67;;;-3275.80;77.50;;;-2.82;72.69;95524.78;5007276;28;20030;-73
2021/04/06 04:27:11;;;;;;;7.47;3.85;;;-3275.80;77.70;;;-2.84;72.94;95522.34;4991323;28;20120;-74
2021/04/06 04:29:37;;;;;;;7.35;3.67;;;-3275.70;77.70;;;-2.86;73.05;95523.41;5004604;28;20034;-74
2021/04/06 04:32:12;;;;;;;6.10;3.95;;;-3275.60;77.90;;;-2.87;72.97;95534.63;5003458;28;20137;-74
2021/04/06 04:34:37;;;;;;;8.38;4.50;;;-3275.60;78.00;;;-2.87;72.93;95532.06;5013509;28;20095;-74
2021/04/06 04:37:03;;;;;;;8.00;4.00;;;-3275.70;78.10;;;-2.92;73.31;95539.34;5008018;28;20085;-74
2021/04/06 04:39:29;;;;;;;7.72;4.35;;;-3275.50;78.60;;;-2.93;73.35;95532.56;4980125;28;20062;-73
2021/04/06 04:41:54;;;;;;;8.13;4.25;;;-3275.60;78.60;;;-2.95;73.43;95535.22;5009118;28;20119;-73
2021/04/06 04:44:20;;;;;;;8.48;5.68;;;-3275.60;78.40;;;-2.94;73.50;95538.63;5007196;28;20053;-75
2021/04/06 04:46:46;;;;;;;9.18;5.00;;;-3275.60;78.60;;;-2.96;73.67;95532.78;4968009;28;20041;-72
2021/04/06 04:49:12;;;;;;;8.50;4.38;;;-3275.50;78.80;;;-2.98;74.22;95534.66;5020252;28;20120;-71
2021/04/06 04:51:37;;;;;;;8.15;4.47;;;-3275.60;78.60;;;-2.96;73.63;95536.16;5004814;28;20096;-72
2021/04/06 04:54:04;;;;;;;8.93;4.40;;;-3275.60;78.40;;;-2.98;73.73;95539.78;5003304;28;20486;-71
2021/04/06 04:56:29;;;;;;;10.05;4.57;;;-3275.50;78.40;;;-2.97;73.61;95536.28;5009109;28;20041;-71
2021/04/06 04:58:55;;;;;;;7.03;4.40;;;-3275.60;78.30;;;-2.98;73.60;95540.63;5009160;28;20111;-66
2021/04/06 05:01:21;;;;;;;6.15;4.10;;;-3275.60;78.10;;;-2.95;73.60;95540.38;5016066;28;20042;-70
2021/04/06 05:03:47;;;;;;;6.95;4.25;;;-3275.70;77.80;;;-2.94;73.72;95538.63;5009108;28;20042;-71
2021/04/06 05:06:13;;;;;;;8.00;3.78;;;-3275.60;77.60;;;-2.95;73.74;95534.41;5008338;28;20068;-69
2021/04/06 05:08:38;;;;;;;5.90;3.95;;;-3275.80;77.80;;;-2.93;73.42;95542.84;4985447;23;20225;-68
2021/04/06 05:11:04;;;;;;;8.45;4.40;;;-3275.80;77.50;;;-2.93;73.78;95545.41;4961313;28;20074;-67
2021/04/06 05:13:30;;;;;;;9.55;5.65;;;-3275.70;77.40;;;-2.90;73.51;95550.31;4979418;28;20041;-67
2021/04/06 05:15:56;;;;;;;8.48;5.97;;;-3275.80;77.40;;;-2.90;73.67;95551.13;4935450;28;20042;-68
2021/04/06 05:18:21;;;;;;;10.05;6.38;;;-3275.80;77.30;;;-2.91;73.72;95544.34;4929226;28;20062;-66
2021/04/06 05:20:47;;;;;;;15.82;6.82;;;-3275.80;77.60;;;-2.90;73.63;95547.75;4959510;28;20551;-69
2021/04/06 05:23:13;;;;;;;10.00;4.85;;;-3275.80;77.50;;;-2.88;73.77;95540.72;4953953;28;20031;-67
2021/04/06 05:25:40;;;;;;;9.35;4.22;;;-3275.80;77.40;;;-2.87;73.54;95542.34;4934350;28;20027;-68
2021/04/06 05:28:06;;;;;;;7.60;3.53;;;-3275.80;77.20;;;-2.83;73.57;95548.91;4949599;28;20050;-68
2021/04/06 05:30:32;;;;;;;7.43;3.55;;;-3275.80;77.10;;;-2.85;73.71;95545.63;4933745;28;20043;-68
2021/04/06 05:32:57;;;;;;;6.93;3.60;;;-3275.80;77.20;;;-2.80;73.65;95540.94;4950303;28;20031;-68
2021/04/06 05:35:23;;;;;;;12.32;6.65;;;-3276.00;76.70;;;-2.75;73.94;95549.09;4938649;28;20108;-68
2021/04/06 05:37:49;;;;;;;13.40;7.07;;;-3276.00;77.40;;;-2.66;74.21;95539.84;4948247;28;20055;-69
2021/04/06 05:40:15;;;;;;;7.60;3.65;;;-3276.10;77.00;;;-2.60;73.88;95537.59;4956913;28;20062;-68
2021/04/06 05:42:41;;;;;;;7.40;3.10;;;-3276.20;75.90;;;-2.53;73.63;95540.50;4932348;28;20050;-68
2021/04/06 05:45:10;;;;;;;7.28;3.47;;;-3276.30;75.50;;;-2.47;73.33;95540.03;4898769;29;20519;-68
2021/04/06 05:47:44;;;;;;;7.53;3.70;;;-3276.30;75.40;;;-2.41;73.19;95536.13;4935869;29;20043;-67
2021/04/06 05:50:10;;;;;;;7.97;3.90;;;-3276.50;75.50;;;-2.34;73.12;95537.25;4920161;29;20567;-67
2021/04/06 05:52:36;;;;;;;7.95;3.35;;;-3276.50;74.60;;;-2.30;72.86;95544.59;4912696;28;20115;-68
2021/04/06 05:55:03;;;;;;;6.88;4.13;;;-3276.60;74.20;;;-2.22;73.09;95538.84;4934270;28;20512;-68
2021/04/06 05:57:29;;;;;;;9.93;4.10;;;-3276.60;74.30;;;-2.13;72.83;95542.44;4930594;28;20038;-67
2021/04/06 05:59:55;;;;;;;5.75;3.50;;;0.00;73.60;;;-2.06;73.06;95540.97;4915259;28;20436;-68
2021/04/06 06:02:21;;;;;;;4.07;3.10;;;0.00;73.00;;;-1.99;72.19;95537.78;4922965;28;20475;-68
2021/04/06 06:04:47;;;;;;;5.95;3.30;;;0.20;72.00;;;-1.91;72.31;95540.53;4934087;28;20456;-68
2021/04/06 06:07:13;;;;;;;6.50;3.83;;;0.40;71.50;;;-1.83;72.39;95533.94;4910235;29;20520;-68
2021/04/06 06:09:39;;;;;;;11.30;8.00;;;0.50;71.60;;;-1.72;72.28;95531.28;4942010;28;20450;-69
2021/04/06 06:12:07;;;;;;;4.30;2.72;;;0.60;71.30;;;-1.58;71.99;95539.53;4938687;28;20049;-68
2021/04/06 06:14:36;;;;;;;6.85;5.07;;;0.90;70.00;;;-1.46;72.05;95532.50;4951981;28;20398;-69
2021/04/06 06:17:15;;;;;;;20.63;12.82;;;0.90;69.70;;;-1.40;70.72;95526.81;4947533;28;20047;-69
2021/04/06 06:19:41;;;;;;;7.65;3.33;;;0.80;68.80;;;-1.37;70.71;95536.88;4945741;28;20035;-68
2021/04/06 06:22:20;;;;;;;5.32;2.90;;;0.80;69.00;;;-1.21;70.90;95526.06;4916871;29;20039;-69
2021/04/06 06:25:09;;;;;;;5.78;3.35;;;1.20;68.60;;;-1.11;70.31;95529.53;4943494;28;20115;-70
2021/04/06 06:27:44;;;;;;;6.72;2.78;;;1.30;66.80;;;-0.95;70.29;95526.41;4953511;28;20038;-69
2021/04/06 06:30:38;;;;;;;4.55;2.90;;;1.60;66.40;;;-0.79;69.29;95533.66;4929233;28;20067;-70
2021/04/06 06:33:22;;;;;;;6.55;2.65;;;1.60;66.40;;;-0.69;69.67;95526.72;4925168;29;20020;-71
2021/04/06 06:35:57;;;;;;;4.57;2.92;;;1.60;67.30;;;-0.61;68.63;95516.56;4952601;28;20035;-70
2021/04/06 06:38:33;;;;;;;5.60;2.97;;;1.60;65.70;;;-0.54;67.86;95527.97;4933898;28;20066;-70
2021/04/06 06:41:20;;;;;;;6.40;2.83;;;1.50;66.00;;;-0.45;68.35;95528.97;4936972;28;20483;-71
2021/04/06 06:43:56;;;;;;;6.63;2.88;;;1.60;66.50;;;-0.40;68.03;95522.44;4937134;28;20554;-67
2021/04/06 06:46:24;;;;;;;4.20;2.28;;;1.60;66.00;;;-0.37;68.03;95526.50;4902395;28;20051;-69
2021/04/06 06:48:59;;;;;;;5.65;2.72;;;1.50;66.20;;;-0.35;67.53;95524.59;4923788;29;20028;-69
2021/04/06 06:51:29;;;;;;;5.43;2.53;;;1.60;66.10;;;-0.33;67.22;95528.66;4951821;28;20051;-68
2021/04/06 06:53:55;;;;;;;8.90;2.80;;;1.60;65.60;;;-0.32;67.27;95519.16;4917927;28;20065;-68
2021/04/06 06:56:35;;;;;;;4.95;2.20;;;1.60;65.90;;;-0.31;66.32;95526.75;4923750;28;20483;-68
2021/04/06 06:59:01;;;;;;;6.07;2.22;;;1.50;64.80;;;-0.32;66.52;95522.56;4933072;28;20131;-68
2021/04/06 07:01:31;;;;;;;5.50;3.00;;;1.60;65.10;;;-0.23;66.62;95523.47;4917314;29;20040;-68
2021/04/06 07:04:12;;;;;;;3.38;2.28;;;1.70;65.20;;;-0.17;65.91;95525.53;4929407;29;20181;-68
2021/04/06 07:06:43;;;;;;;5.13;2.40;;;1.80;64.30;;;-0.13;66.24;95524.31;4952587;28;20384;-68
2021/04/06 07:09:24;;;;;;;8.55;2.67;;;1.80;64.80;;;-0.10;65.43;95511.09;4936247;28;20035;-69
2021/04/06 07:11:59;;;;;;;6.90;2.30;;;1.80;64.50;;;-0.09;65.25;95520.50;4952258;28;20464;-69
2021/04/06 07:14:27;;;;;;;9.50;6.00;;;1.70;64.30;;;-0.10;65.68;95529.19;4917311;29;20048;-69
2021/04/06 07:16:53;;;;;;;5.07;2.95;;;1.60;64.50;;;-0.13;65.49;95520.91;4932972;28;20399;-69
2021/04/06 07:19:19;;;;;;;5.82;2.70;;;1.60;64.80;;;-0.13;65.24;95515.75;4948678;28;20047;-68
2021/04/06 07:21:45;;;;;;;4.65;2.80;;;1.70;64.30;;;-0.11;65.01;95513.84;4933021;29;20035;-69
2021/04/06 07:24:17;;;;;;;29.42;22.75;;;1.70;63.80;;;-0.13;65.31;95528.66;4945922;29;20428;-68
2021/04/06 07:26:42;;;;;;;24.48;17.90;;;1.60;64.80;;;-0.05;65.65;95537.34;4935677;28;20570;-68
2021/04/06 07:29:08;;;;;;;5.50;3.40;;;1.90;65.30;;;-0.03;65.28;95535.44;4904330;29;20032;-69
2021/04/06 07:31:34;;;;;;;5.63;2.78;;;1.80;63.90;;;0.03;65.11;95533.28;4920448;29;20047;-68
2021/04/06 07:34:00;;;;;;;4.05;2.60;;;2.00;64.00;;;0.07;65.34;95529.47;4919964;28;20085;-69
2021/04/06 07:36:26;;;;;;;16.33;10.07;;;2.10;64.60;;;0.12;65.29;95517.75;4934226;28;20043;-68
2021/04/06 07:38:57;;;;;;;14.05;9.82;;;2.10;63.80;;;0.19;63.70;95528.34;4935955;28;20100;-68
2021/04/06 07:41:28;;;;;;;7.40;3.60;;;2.10;62.20;;;0.18;64.76;95524.94;4936132;28;20095;-69
2021/04/06 07:43:56;;;;;;;9.10;2.60;;;2.10;63.50;;;0.22;64.60;95530.63;4920038;28;20035;-69
2021/04/06 07:46:33;;;;;;;5.90;2.60;;;2.10;63.40;;;0.22;63.72;95528.06;4970215;28;20050;-67
2021/04/06 07:49:32;;;;;;;8.05;2.45;;;2.00;62.40;;;0.20;63.44;95529.97;4972091;28;20050;-68
2021/04/06 07:52:23;;;;;;;6.55;2.42;;;2.00;63.30;;;0.14;64.64;95525.34;4927469;28;20036;-68
2021/04/06 07:54:49;;;;;;;8.27;2.67;;;1.90;64.10;;;0.10;64.71;95519.66;4946967;28;20031;-68
2021/04/06 07:57:15;;;;;;;5.50;2.28;;;1.90;64.90;;;0.12;64.46;95532.44;4931722;28;20035;-68
2021/04/06 07:59:44;;;;;;;6.38;2.28;;;1.90;64.20;;;0.09;64.18;95527.56;4938062;28;20040;-67
2021/04/06 08:02:09;;;;;;;5.88;2.53;;;1.80;63.80;;;0.12;64.37;95537.63;4931245;28;20737;-68
2021/04/06 08:04:38;;;;;;;6.50;2.72;;;1.90;64.00;;;0.10;64.05;95534.34;4943599;28;20046;-68
2021/04/06 08:07:19;;;;;;;6.93;2.72;;;1.80;63.30;;;0.07;64.29;95524.28;4949893;28;20049;-68
2021/04/06 08:09:52;;;;;;;6.25;3.15;;;1.80;64.30;;;0.01;64.59;95530.03;4937983;28;20073;-69
2021/04/06 08:12:28;;;;;;;5.72;2.20;;;1.70;65.80;;;0.01;64.99;95535.19;4942753;28;20117;-67
2021/04/06 08:15:04;;;;;;;21.80;14.68;;;1.70;65.10;;;-0.01;65.12;95538.69;4949336;28;20041;-67
2021/04/06 08:17:29;;;;;;;8.07;3.00;;;1.70;65.40;;;0.01;64.54;95535.19;4958176;28;20035;-67
2021/04/06 08:20:05;;;;;;;5.40;2.42;;;1.70;64.70;;;0.01;65.01;95535.19;4953544;28;20470;-68
2021/04/06 08:22:51;;;;;;;8.23;2.70;;;1.80;65.70;;;0.08;65.03;95537.09;4949254;28;20031;-69
2021/04/06 08:25:20;;;;;;;6.70;2.70;;;2.00;65.50;;;0.16;65.02;95531.22;4928190;28;20103;-70
2021/04/06 08:27:47;;;;;;;5.88;2.83;;;2.10;64.60;;;0.21;64.56;95536.78;4951208;28;20439;-70
2021/04/06 08:30:18;;;;;;;6.00;2.72;;;2.20;64.30;;;0.33;65.03;95540.03;4936338;28;20034;-68
2021/04/06 08:32:56;;;;;;;7.00;2.85;;;2.50;63.50;;;0.48;65.25;95536.06;4950662;28;20050;-69
2021/04/06 08:35:52;;;;;;;7.78;4.45;;;2.70;63.10;;;0.62;63.82;95535.56;4943108;28;20098;-69
2021/04/06 08:38:28;;;;;;;9.75;5.00;;;2.70;62.00;;;0.66;64.07;95536.09;4965988;28;20061;-69
2021/04/06 08:41:30;;;;;;;5.30;2.47;;;2.60;62.30;;;0.65;63.73;95529.31;4956565;28;20031;-69
2021/04/06 08:44:00;;;;;;;13.00;7.47;;;2.50;62.10;;;0.60;64.01;95522.78;4949729;28;20041;-71
2021/04/06 08:46:33;;;;;;;8.73;4.10;;;2.30;62.80;;;0.59;63.90;95526.31;4902740;28;20411;-69
2021/04/06 08:48:58;;;;;;;7.03;2.80;;;2.40;63.20;;;0.60;63.59;95527.97;4949918;28;20035;-70
2021/04/06 08:52:03;;;;;;;5.90;2.70;;;2.50;63.00;;;0.68;63.48;95518.66;4918024;29;20419;-68
2021/04/06 08:54:33;;;;;;;6.80;3.40;;;2.60;62.60;;;0.75;63.96;95524.91;4935478;28;20439;-71
2021/04/06 08:57:09;;;;;;;7.55;2.60;;;2.80;62.70;;;0.79;63.29;95527.06;4932317;28;20046;-68
2021/04/06 08:59:39;;;;;;;6.70;2.67;;;2.80;62.30;;;0.82;63.71;95518.19;4921688;29;20046;-66
2021/04/06 09:02:13;;;;;;;5.13;2.30;;;2.80;61.90;;;0.94;63.82;95530.00;4970988;28;20032;-66
2021/04/06 09:04:49;;;;;;;6.85;2.83;;;3.10;62.00;;;1.07;63.29;95533.06;4916043;28;20290;-65
2021/04/06 09:07:22;;;;;;;9.00;2.83;;;3.20;60.80;;;1.16;63.37;95527.03;4949744;28;20148;-66
2021/04/06 09:10:04;;;;;;;5.43;2.83;;;3.30;60.70;;;1.29;62.87;95538.81;4950041;28;20464;-66
2021/04/06 09:12:35;;;;;;;6.15;2.30;;;3.30;60.90;;;1.31;62.33;95531.69;4933904;28;20090;-66
2021/04/06 09:15:00;;;;;;;8.03;2.70;;;3.20;60.00;;;1.35;62.05;95527.84;4915431;29;20464;-67
2021/04/06 09:17:29;;;;;;;4.63;2.30;;;3.30;60.10;;;1.45;61.96;95528.63;4941604;28;20042;-67
2021/04/06 09:19:55;;;;;;;5.60;2.10;;;3.60;58.70;;;1.58;62.23;95516.09;4933707;28;20104;-67
2021/04/06 09:22:21;;;;;;;11.05;5.28;;;3.70;58.70;;;1.76;62.34;95511.72;4933226;28;20039;-69
2021/04/06 09:24:46;;;;;;;6.88;2.65;;;4.10;57.90;;;2.00;61.87;95507.69;4918153;29;20039;-68
2021/04/06 09:27:12;;;;;;;5.93;2.03;;;4.60;57.80;;;2.23;61.51;95506.25;4932165;28;20035;-67
2021/04/06 09:29:45;;;;;;;4.97;2.20;;;4.80;55.40;;;2.43;60.74;95497.28;4933514;28;20109;-67
2021/04/06 09:32:14;;;;;;;8.07;3.65;;;5.00;55.20;;;2.57;60.15;95505.50;4939710;28;20043;-68
2021/04/06 09:34:45;;;;;;;5.10;2.10;;;4.90;54.50;;;2.85;59.06;95509.53;4930409;28;20036;-69
2021/04/06 09:37:19;;;;;;;6.53;1.77;;;5.20;52.40;;;3.03;59.75;95507.66;4915765;29;20044;-67
2021/04/06 09:39:50;;;;;;;31.70;18.48;;;5.70;52.70;;;3.34;59.01;95505.28;4946063;28;20035;-67
2021/04/06 09:42:16;;;;;;;5.63;2.78;;;6.00;51.80;;;3.54;58.81;95505.84;4917223;29;20035;-67
2021/04/06 09:44:44;;;;;;;6.85;2.08;;;6.00;50.20;;;3.72;58.54;95502.28;4939961;28;20039;-68
2021/04/06 09:47:11;;;;;;;4.18;1.90;;;6.10;50.90;;;3.71;57.82;95498.06;4950812;28;20066;-68
2021/04/06 09:49:40;;;;;;;6.60;1.80;;;5.60;50.20;;;3.60;56.97;95499.16;4933695;28;20050;-69
2021/04/06 09:52:14;;;;;;;8.00;2.13;;;5.40;50.80;;;3.64;55.78;95503.09;4907943;29;20040;-69
2021/04/06 09:55:07;;;;;;;7.68;2.00;;;5.60;50.90;;;3.76;55.96;95495.78;4915207;29;20039;-68
2021/04/06 09:57:46;;;;;;;3.08;1.60;;;6.00;50.60;;;3.91;55.29;95491.56;4917395;29;20061;-68
2021/04/06 10:00:15;;;;;;;5.72;2.03;;;6.20;49.70;;;3.92;56.25;95480.19;4918388;29;20036;-69
2021/04/06 10:02:45;;;;;;;7.72;2.00;;;5.80;50.40;;;3.87;56.82;95490.28;4962956;28;20051;-68
2021/04/06 10:05:21;;;;;;;9.75;4.03;;;5.70;50.70;;;3.78;55.15;95486.84;4953332;28;20039;-69
2021/04/06 10:07:48;;;;;;;4.57;1.85;;;5.50;50.90;;;3.59;55.87;95487.94;4933461;28;20051;-68
2021/04/06 10:10:30;;;;;;;6.25;2.08;;;5.00;51.10;;;3.33;55.08;95497.66;4918173;28;20043;-68
2021/04/06 10:12:57;;;;;;;4.45;1.70;;;4.70;53.20;;;3.16;56.52;95490.78;4921601;29;20028;-68
2021/04/06 10:15:25;;;;;;;4.97;1.70;;;4.60;53.90;;;2.96;55.73;95496.28;4953361;28;20042;-69
2021/04/06 10:17:51;;;;;;;9.77;2.58;;;4.20;53.30;;;2.74;56.76;95491.63;4936257;28;20503;-67
2021/04/06 10:20:24;;;;;;;7.03;1.90;;;4.10;55.10;;;2.63;57.08;95497.06;4953492;28;20042;-68
2021/04/06 10:22:53;;;;;;;8.93;1.80;;;4.10;55.70;;;2.49;57.74;95492.44;4899646;29;20750;-67
2021/04/06 10:25:26;;;;;;;6.70;2.20;;;3.90;57.30;;;2.33;58.51;95496.59;4920866;29;20126;-67
2021/04/06 10:27:58;;;;;;;8.15;2.10;;;3.80;59.20;;;2.15;59.02;95501.81;4936791;28;20067;-67
2021/04/06 10:30:42;;;;;;;7.88;1.95;;;3.60;60.00;;;2.11;59.77;95490.13;4917657;29;20127;-66